Time;durP1;ratioP1;P1;durP2;ratioP2;P2;SDS_P1;SDS_P2;PMS_P1;PMS_P2;Temp;Humidity;BMP_temperature;BMP_pressure;BME280_temperature;BME280_humidity;BME280_pressure;Samples;Min_cycle;Max_cycle;Signal;HPM_P1;HPM_P2
2023/03/11 00:00:32;;;;;;;26.60;13.27;;;8.80;99.90;;;;;;4713263;30;20671;-76
2023/03/11 00:03:00;;;;;;;24.93;12.90;;;8.70;99.90;;;;;;4713230;30;20265;-75
2023/03/11 00:05:32;;;;;;;24.40;13.37;;;8.70;99.90;;;;;;4713099;30;20219;-77
2023/03/11 00:08:00;;;;;;;24.77;12.73;;;8.70;99.90;;;;;;4713548;30;20314;-78
2023/03/11 00:10:35;;;;;;;26.60;12.53;;;8.80;99.90;;;;;;4713427;30;20245;-77
2023/03/11 00:13:03;;;;;;;26.00;12.70;;;8.80;99.90;;;;;;4716421;30;20206;-77
2023/03/11 00:15:31;;;;;;;19.07;11.67;;;8.80;99.90;;;;;;4715845;30;20211;-77
2023/03/11 00:17:58;;;;;;;25.03;12.50;;;8.80;99.90;;;;;;4715707;30;20211;-77
2023/03/11 00:20:31;;;;;;;23.47;12.27;;;8.80;99.90;;;;;;4715840;30;20214;-77
2023/03/11 00:23:13;;;;;;;20.57;11.40;;;8.80;99.90;;;;;;4701338;30;20261;-78
2023/03/11 00:28:48;;;;;;;23.20;12.07;;;8.80;99.90;;;;;;4716883;30;20246;-77
2023/03/11 00:31:49;;;;;;;25.23;12.27;;;8.80;99.90;;;;;;4715838;30;20241;-77
2023/03/11 00:34:48;;;;;;;21.63;11.30;;;8.90;99.90;;;;;;4679763;30;20208;-78
2023/03/11 00:37:24;;;;;;;21.00;11.90;;;9.00;99.90;;;;;;4679628;30;20216;-77
2023/03/11 00:39:51;;;;;;;22.00;11.77;;;8.90;99.90;;;;;;4679963;30;20230;-76
2023/03/11 00:42:36;;;;;;;22.33;11.63;;;8.70;99.90;;;;;;4680177;30;20232;-77
2023/03/11 00:45:04;;;;;;;21.13;11.23;;;8.60;99.90;;;;;;4679719;30;20216;-77
2023/03/11 00:47:31;;;;;;;20.70;11.60;;;8.50;99.90;;;;;;4680102;30;20716;-76
2023/03/11 00:49:57;;;;;;;23.90;11.57;;;8.50;99.90;;;;;;4781700;24;20324;-77
2023/03/11 00:52:24;;;;;;;23.53;11.67;;;8.60;99.90;;;;;;4786000;30;20625;-77
2023/03/11 00:54:51;;;;;;;22.07;12.07;;;8.60;99.90;;;;;;4786111;30;20208;-77
2023/03/11 00:57:18;;;;;;;23.00;11.63;;;8.60;99.90;;;;;;4770957;30;20215;-77
2023/03/11 00:59:45;;;;;;;20.90;11.63;;;8.60;99.90;;;;;;4785964;30;20232;-76
2023/03/11 01:02:12;;;;;;;22.90;11.73;;;8.60;99.90;;;;;;4786219;30;20208;-76
2023/03/11 01:04:39;;;;;;;21.90;11.27;;;8.50;99.90;;;;;;4785888;30;20223;-77
2023/03/11 01:07:07;;;;;;;21.27;11.50;;;8.50;99.90;;;;;;4787097;30;20226;-77
2023/03/11 01:09:37;;;;;;;22.60;11.40;;;8.40;99.90;;;;;;4787361;30;20200;-75
2023/03/11 01:12:04;;;;;;;22.70;11.33;;;8.30;99.90;;;;;;4787292;30;20789;-77
2023/03/11 01:14:31;;;;;;;21.93;11.43;;;8.30;99.90;;;;;;4786075;30;20208;-76
2023/03/11 01:16:57;;;;;;;21.40;11.13;;;8.30;99.90;;;;;;4786252;30;20216;-76
2023/03/11 01:19:24;;;;;;;23.93;10.90;;;8.20;99.90;;;;;;4785993;30;20231;-77
2023/03/11 01:21:51;;;;;;;24.77;11.40;;;8.20;99.90;;;;;;4786020;30;20201;-77
2023/03/11 01:24:18;;;;;;;19.83;11.07;;;8.20;99.90;;;;;;4785763;30;20264;-76
2023/03/11 01:26:45;;;;;;;25.03;11.70;;;8.20;99.90;;;;;;4785964;30;20247;-75
2023/03/11 01:29:12;;;;;;;20.50;11.23;;;8.10;99.90;;;;;;4786014;30;20327;-76
2023/03/11 01:31:39;;;;;;;19.80;11.33;;;8.20;99.90;;;;;;4785799;30;20659;-76
2023/03/11 01:34:05;;;;;;;21.00;11.47;;;8.10;99.90;;;;;;4787564;30;20290;-76
2023/03/11 01:36:32;;;;;;;21.33;11.13;;;8.00;99.90;;;;;;4785517;30;20211;-77
2023/03/11 01:38:59;;;;;;;23.00;11.57;;;8.00;99.90;;;;;;4785360;30;20319;-77
2023/03/11 01:41:26;;;;;;;23.03;11.63;;;8.00;99.90;;;;;;4787220;30;20287;-77
2023/03/11 01:43:54;;;;;;;21.23;11.23;;;8.00;99.90;;;;;;4785592;30;20679;-77
2023/03/11 01:46:25;;;;;;;18.40;10.83;;;7.90;99.90;;;;;;4785687;30;20208;-76
2023/03/11 01:49:00;;;;;;;21.87;11.73;;;7.90;99.90;;;;;;4785496;30;20695;-77
2023/03/11 01:51:48;;;;;;;21.23;11.43;;;7.90;99.90;;;;;;4785575;30;20215;-77
2023/03/11 01:54:27;;;;;;;22.10;11.20;;;7.90;99.90;;;;;;4785399;30;20302;-77
2023/03/11 01:56:55;;;;;;;20.33;10.70;;;7.90;99.90;;;;;;4785415;30;20226;-76
2023/03/11 01:59:27;;;;;;;21.30;11.53;;;7.90;99.90;;;;;;4785629;30;20223;-76
2023/03/11 02:02:06;;;;;;;19.87;10.90;;;7.80;99.90;;;;;;4785207;30;20211;-75
2023/03/11 02:04:34;;;;;;;20.13;11.60;;;7.80;99.90;;;;;;4786824;30;20208;-76
2023/03/11 02:07:03;;;;;;;19.87;11.47;;;7.70;99.90;;;;;;4785346;29;20652;-76
2023/03/11 02:09:30;;;;;;;24.67;12.37;;;7.70;99.90;;;;;;4788587;30;20215;-75
2023/03/11 02:11:57;;;;;;;24.97;12.50;;;7.60;99.90;;;;;;4788810;30;20233;-75
2023/03/11 02:14:25;;;;;;;22.13;12.27;;;7.60;99.90;;;;;;4788775;30;20310;-76
2023/03/11 02:16:52;;;;;;;21.30;11.60;;;7.60;99.90;;;;;;4788921;30;20230;-75
2023/03/11 02:19:34;;;;;;;29.07;12.90;;;7.50;99.90;;;;;;4788847;30;20238;-75
2023/03/11 02:22:01;;;;;;;22.27;12.10;;;7.50;99.90;;;;;;4788749;30;20268;-75
2023/03/11 02:25:01;;;;;;;23.23;12.53;;;7.50;99.90;;;;;;4788471;30;20207;-75
2023/03/11 02:27:31;;;;;;;23.73;12.03;;;7.40;99.90;;;;;;4788523;30;20609;-77
2023/03/11 02:29:59;;;;;;;24.33;12.67;;;7.50;99.90;;;;;;4788554;30;20230;-76
2023/03/11 02:32:27;;;;;;;20.97;11.80;;;7.40;99.90;;;;;;4789809;30;20223;-77
2023/03/11 02:34:54;;;;;;;23.40;12.03;;;7.50;99.90;;;;;;4789655;30;20565;-76
2023/03/11 02:37:20;;;;;;;21.93;12.27;;;7.40;99.90;;;;;;4788589;30;20582;-76
2023/03/11 02:39:50;;;;;;;24.27;12.37;;;7.40;99.90;;;;;;4788239;30;20231;-77
2023/03/11 02:42:27;;;;;;;20.03;11.40;;;7.40;99.90;;;;;;4788531;30;20205;-77
2023/03/11 02:44:59;;;;;;;24.60;11.47;;;7.30;99.90;;;;;;4773378;30;20569;-76
2023/03/11 02:47:26;;;;;;;21.03;11.33;;;7.30;99.90;;;;;;4789803;30;20526;-77
2023/03/11 02:49:54;;;;;;;21.17;11.13;;;7.30;99.90;;;;;;4788301;30;20245;-77
2023/03/11 02:52:27;;;;;;;22.77;11.13;;;7.20;99.90;;;;;;4788090;30;20223;-77
2023/03/11 02:54:54;;;;;;;23.90;11.73;;;7.20;99.90;;;;;;4773235;30;20654;-76
2023/03/11 02:57:21;;;;;;;21.03;11.17;;;7.00;99.90;;;;;;4788101;30;20212;-75
2023/03/11 02:59:48;;;;;;;20.40;11.50;;;7.00;99.90;;;;;;4789699;30;20330;-77
2023/03/11 03:02:15;;;;;;;21.10;10.83;;;6.90;99.90;;;;;;4787981;30;20226;-76
2023/03/11 03:04:41;;;;;;;20.17;10.63;;;6.90;99.90;;;;;;4789248;30;20212;-76
2023/03/11 03:07:08;;;;;;;22.40;10.90;;;6.90;99.90;;;;;;4787900;30;20211;-78
2023/03/11 03:09:36;;;;;;;18.57;10.47;;;6.90;99.90;;;;;;4789178;29;20205;-77
2023/03/11 03:12:04;;;;;;;20.23;10.33;;;6.80;99.90;;;;;;4789221;30;20570;-77
2023/03/11 03:14:31;;;;;;;20.37;10.03;;;6.80;99.90;;;;;;4787883;30;20652;-77
2023/03/11 03:16:58;;;;;;;18.87;10.13;;;6.80;99.90;;;;;;4787789;30;20204;-77
2023/03/11 03:19:25;;;;;;;19.93;10.30;;;6.80;99.90;;;;;;4787313;29;20227;-76
2023/03/11 03:21:52;;;;;;;18.37;9.93;;;6.70;99.90;;;;;;4787587;30;20580;-77
2023/03/11 03:24:18;;;;;;;18.20;10.30;;;6.60;99.90;;;;;;4787797;30;20197;-75
2023/03/11 03:26:45;;;;;;;19.67;10.13;;;6.60;99.90;;;;;;4787572;30;20214;-75
2023/03/11 03:29:12;;;;;;;16.87;9.50;;;6.60;99.90;;;;;;4788027;30;20239;-77
2023/03/11 03:31:39;;;;;;;21.30;10.53;;;6.60;99.90;;;;;;4787492;30;20200;-77
2023/03/11 03:34:06;;;;;;;18.67;9.90;;;6.60;99.90;;;;;;4788726;30;20219;-77
2023/03/11 03:36:33;;;;;;;21.83;10.30;;;6.60;99.90;;;;;;4787843;30;20214;-77
2023/03/11 03:39:00;;;;;;;18.57;9.70;;;6.50;99.90;;;;;;4787697;30;20218;-77
2023/03/11 03:41:28;;;;;;;22.90;10.50;;;6.50;99.90;;;;;;4772956;30;20238;-77
2023/03/11 03:43:55;;;;;;;20.00;10.07;;;6.50;99.90;;;;;;4787463;30;20558;-76
2023/03/11 03:46:22;;;;;;;21.67;10.30;;;6.50;99.90;;;;;;4788659;29;20192;-77
2023/03/11 03:48:49;;;;;;;22.63;10.53;;;6.50;99.90;;;;;;4787117;30;20243;-76
2023/03/11 03:51:17;;;;;;;21.23;10.53;;;6.50;99.90;;;;;;4772229;30;20231;-77
2023/03/11 03:53:45;;;;;;;22.20;10.73;;;6.40;99.90;;;;;;4787271;30;20203;-76
2023/03/11 03:56:15;;;;;;;19.47;10.23;;;6.40;99.90;;;;;;4772495;30;20216;-77
2023/03/11 03:58:42;;;;;;;18.80;10.13;;;6.40;99.90;;;;;;4787310;30;20574;-77
2023/03/11 04:01:10;;;;;;;19.00;9.73;;;6.40;99.90;;;;;;4786949;30;20252;-78
2023/03/11 04:03:38;;;;;;;21.37;10.43;;;6.40;99.90;;;;;;4786978;30;20217;-77
2023/03/11 04:08:32;;;;;;;19.93;10.33;;;6.50;99.90;;;;;;4787983;29;20226;-75
2023/03/11 04:10:59;;;;;;;19.10;10.03;;;6.50;99.90;;;;;;4789859;29;20204;-75
2023/03/11 04:13:26;;;;;;;18.80;10.10;;;6.60;99.90;;;;;;4789643;29;20292;-75
2023/03/11 04:15:53;;;;;;;18.37;10.17;;;6.60;99.90;;;;;;4791377;29;20194;-78
2023/03/11 04:18:21;;;;;;;20.47;10.10;;;6.70;99.90;;;;;;4805857;29;20206;-77
2023/03/11 04:20:48;;;;;;;17.97;9.67;;;6.70;99.90;;;;;;4789575;29;20239;-76
2023/03/11 04:23:15;;;;;;;18.87;10.23;;;6.70;99.90;;;;;;4789995;29;20661;-77
2023/03/11 04:25:42;;;;;;;18.63;9.57;;;6.70;99.90;;;;;;4789492;29;20610;-77
2023/03/11 04:28:09;;;;;;;17.37;9.40;;;6.70;99.90;;;;;;4800618;24;20699;-77
2023/03/11 04:30:36;;;;;;;19.33;9.97;;;6.70;99.90;;;;;;4805223;29;20204;-77
2023/03/11 04:33:02;;;;;;;19.70;9.50;;;6.80;99.90;;;;;;4805824;29;20542;-78
2023/03/11 04:35:29;;;;;;;18.83;9.80;;;6.70;99.90;;;;;;4804472;29;20225;-77
2023/03/11 04:37:56;;;;;;;18.83;9.60;;;6.70;99.90;;;;;;4819676;29;20218;-77
2023/03/11 04:40:23;;;;;;;18.07;8.93;;;6.70;99.90;;;;;;4804180;29;20251;-77
2023/03/11 04:42:51;;;;;;;18.63;9.50;;;6.70;99.90;;;;;;4805690;29;20275;-77
2023/03/11 04:45:18;;;;;;;17.07;8.57;;;6.70;99.90;;;;;;4804234;29;20662;-77
2023/03/11 04:47:50;;;;;;;17.97;9.70;;;6.70;99.90;;;;;;4804272;29;20209;-78
2023/03/11 04:50:18;;;;;;;17.37;9.10;;;6.70;99.90;;;;;;4805526;29;20206;-77
2023/03/11 04:52:45;;;;;;;15.93;9.17;;;6.70;99.90;;;;;;4804162;29;20203;-77
2023/03/11 04:55:12;;;;;;;15.27;8.73;;;6.80;99.90;;;;;;4789169;29;20215;-75
2023/03/11 04:57:40;;;;;;;16.27;8.90;;;6.80;99.90;;;;;;4804165;29;20203;-79
2023/03/11 05:00:10;;;;;;;17.53;8.83;;;6.80;99.90;;;;;;4804079;29;20235;-78
2023/03/11 05:02:38;;;;;;;15.37;8.77;;;6.80;99.90;;;;;;4805156;29;20217;-77
2023/03/11 05:05:07;;;;;;;15.43;8.53;;;6.80;99.90;;;;;;4817574;24;20733;-77
2023/03/11 05:07:35;;;;;;;15.37;8.43;;;6.80;99.90;;;;;;4789224;29;20755;-77
2023/03/11 05:10:03;;;;;;;16.50;8.57;;;6.80;99.90;;;;;;4788922;29;20588;-77
2023/03/11 05:12:30;;;;;;;15.90;8.30;;;6.70;99.90;;;;;;4788888;29;20216;-75
2023/03/11 05:14:57;;;;;;;13.83;8.10;;;6.70;99.90;;;;;;4788987;29;20221;-74
2023/03/11 05:17:25;;;;;;;15.23;8.00;;;6.80;99.90;;;;;;4788725;29;20968;-77
2023/03/11 05:19:54;;;;;;;15.67;8.00;;;6.80;99.90;;;;;;4789231;29;20286;-75
2023/03/11 05:22:21;;;;;;;13.57;7.60;;;6.90;99.90;;;;;;4788847;29;20787;-78
2023/03/11 05:24:48;;;;;;;14.27;7.33;;;6.90;99.90;;;;;;4788760;29;20209;-75
2023/03/11 05:27:16;;;;;;;17.07;7.67;;;6.90;99.90;;;;;;4788656;29;20662;-76
2023/03/11 05:29:44;;;;;;;14.07;7.50;;;6.90;99.90;;;;;;4778673;24;20242;-75
2023/03/11 05:32:24;;;;;;;13.47;7.60;;;6.90;99.90;;;;;;4769163;30;20206;-76
2023/03/11 05:34:51;;;;;;;13.07;7.53;;;6.90;99.90;;;;;;4755753;30;20219;-74
2023/03/11 05:37:18;;;;;;;13.00;7.40;;;6.90;99.90;;;;;;4785981;30;20204;-75
2023/03/11 05:39:45;;;;;;;16.47;7.47;;;6.90;99.90;;;;;;4770869;30;20694;-75
2023/03/11 05:42:12;;;;;;;13.10;7.10;;;6.90;99.90;;;;;;4772462;30;20219;-76
2023/03/11 05:44:40;;;;;;;15.30;7.63;;;7.00;99.90;;;;;;4774411;30;20211;-75
2023/03/11 05:47:07;;;;;;;13.60;7.20;;;7.10;99.90;;;;;;4789255;30;20224;-75
2023/03/11 05:49:34;;;;;;;12.57;6.83;;;7.00;99.90;;;;;;4774295;30;20207;-75
2023/03/11 05:52:00;;;;;;;13.13;6.80;;;7.10;99.90;;;;;;4789143;30;20213;-75
2023/03/11 05:54:27;;;;;;;10.73;6.20;;;7.10;99.90;;;;;;4790228;30;20200;-75
2023/03/11 05:56:54;;;;;;;12.43;6.53;;;7.10;99.90;;;;;;4789558;30;20207;-86
2023/03/11 05:59:22;;;;;;;12.20;6.80;;;7.10;99.90;;;;;;4789985;30;20206;-81
2023/03/11 06:01:49;;;;;;;13.27;6.90;;;7.10;99.90;;;;;;4759755;30;20218;-79
2023/03/11 06:04:16;;;;;;;14.10;7.30;;;7.10;99.90;;;;;;4793098;30;20229;-88
2023/03/11 06:06:43;;;;;;;12.73;7.07;;;7.10;99.90;;;;;;4774086;30;20207;-75
2023/03/11 06:09:13;;;;;;;17.10;7.57;;;7.10;99.90;;;;;;4789899;30;20196;-75
2023/03/11 06:11:41;;;;;;;14.27;6.73;;;7.10;99.90;;;;;;4773944;30;20219;-75
2023/03/11 06:14:12;;;;;;;13.10;6.83;;;7.10;99.90;;;;;;4789527;30;20216;-83
2023/03/11 06:16:40;;;;;;;11.53;6.47;;;7.20;99.90;;;;;;4775345;30;20211;-84
2023/03/11 06:19:08;;;;;;;10.70;6.50;;;7.10;99.90;;;;;;4775120;30;20201;-81
2023/03/11 06:21:35;;;;;;;13.20;6.70;;;7.20;99.90;;;;;;4792469;30;20231;-85
2023/03/11 06:24:01;;;;;;;11.63;6.50;;;7.30;99.90;;;;;;4779757;30;20214;-81
2023/03/11 06:26:28;;;;;;;10.03;6.10;;;7.40;99.90;;;;;;4797129;30;20268;-82
2023/03/11 06:28:55;;;;;;;10.00;5.70;;;7.40;99.90;;;;;;4792222;30;20246;-76
2023/03/11 06:31:25;;;;;;;10.47;5.93;;;7.40;99.90;;;;;;4772091;30;20240;-76
2023/03/11 06:33:57;;;;;;;11.77;6.00;;;7.50;99.90;;;;;;4773652;30;20219;-75
2023/03/11 06:36:25;;;;;;;9.53;6.00;;;7.50;99.90;;;;;;4773496;30;20212;-75
2023/03/11 06:38:53;;;;;;;11.37;5.37;;;7.50;99.90;;;;;;4790307;30;20246;-74
2023/03/11 06:41:20;;;;;;;9.60;5.33;;;7.50;99.90;;;;;;4789856;30;20229;-76
2023/03/11 06:43:47;;;;;;;9.73;5.30;;;7.50;99.90;;;;;;4773545;30;20652;-76
2023/03/11 06:46:18;;;;;;;9.37;5.43;;;7.50;99.90;;;;;;4773286;30;20690;-77
2023/03/11 06:48:45;;;;;;;8.93;5.63;;;7.60;99.90;;;;;;4773503;30;20651;-78
2023/03/11 06:51:13;;;;;;;12.30;5.93;;;7.70;99.90;;;;;;4773342;30;20293;-79
2023/03/11 06:53:40;;;;;;;10.43;5.80;;;7.70;99.90;;;;;;4772534;30;20211;-77
2023/03/11 06:56:09;;;;;;;9.23;5.30;;;7.90;99.90;;;;;;4773147;30;20229;-77
2023/03/11 06:58:38;;;;;;;8.53;5.57;;;7.90;99.90;;;;;;4789512;30;20728;-77
2023/03/11 07:01:18;;;;;;;9.37;5.80;;;7.90;99.90;;;;;;4772980;30;20708;-77
2023/03/11 07:03:46;;;;;;;8.67;5.57;;;8.00;99.90;;;;;;4773137;30;20292;-77
2023/03/11 07:06:16;;;;;;;9.73;5.80;;;8.10;99.90;;;;;;4772912;30;20272;-78
2023/03/11 07:08:44;;;;;;;10.20;5.70;;;8.20;99.90;;;;;;4789346;30;20553;-77
2023/03/11 07:11:33;;;;;;;10.03;6.37;;;8.30;99.90;;;;;;4772959;30;20226;-76
2023/03/11 07:14:00;;;;;;;9.80;6.60;;;8.30;99.90;;;;;;4772595;30;20620;-77
2023/03/11 07:16:29;;;;;;;10.50;6.87;;;8.30;99.90;;;;;;4789432;30;20204;-77
2023/03/11 07:18:59;;;;;;;10.77;6.50;;;8.20;99.90;;;;;;4789074;30;20200;-75
2023/03/11 07:21:28;;;;;;;10.27;6.63;;;8.20;99.90;;;;;;4788668;30;20224;-76
2023/03/11 07:23:57;;;;;;;10.60;6.10;;;8.30;99.90;;;;;;4773008;30;20212;-77
2023/03/11 07:26:25;;;;;;;9.90;6.67;;;8.20;99.90;;;;;;4772437;30;20200;-77
2023/03/11 07:28:53;;;;;;;10.50;7.00;;;8.20;99.90;;;;;;4758112;30;20224;-74
2023/03/11 07:31:23;;;;;;;10.83;6.70;;;8.10;99.90;;;;;;4772384;30;20338;-77
2023/03/11 07:33:51;;;;;;;10.97;6.80;;;8.10;99.90;;;;;;4772557;30;20287;-75
2023/03/11 07:36:23;;;;;;;11.40;7.30;;;8.20;99.90;;;;;;4772609;30;20212;-76
2023/03/11 07:38:58;;;;;;;9.93;7.27;;;8.20;99.90;;;;;;4788747;30;20211;-78
2023/03/11 07:41:26;;;;;;;11.63;7.43;;;8.10;99.90;;;;;;4772383;30;20243;-77
2023/03/11 07:43:54;;;;;;;11.77;7.77;;;8.10;99.90;;;;;;4757684;30;20219;-76
2023/03/11 07:46:23;;;;;;;12.90;8.30;;;8.10;99.90;;;;;;4772366;30;20212;-77
2023/03/11 07:48:51;;;;;;;12.23;8.17;;;8.20;99.90;;;;;;4772065;30;20654;-76
2023/03/11 07:51:19;;;;;;;12.40;8.60;;;8.10;99.90;;;;;;4772199;30;20314;-77
2023/03/11 07:53:46;;;;;;;13.87;9.40;;;8.00;99.90;;;;;;4788289;30;20736;-77
2023/03/11 07:56:15;;;;;;;15.37;9.57;;;8.00;99.90;;;;;;4788379;30;20207;-77
2023/03/11 07:58:42;;;;;;;14.30;9.73;;;8.00;99.90;;;;;;4771982;30;20558;-76
2023/03/11 08:01:17;;;;;;;15.33;9.50;;;7.90;99.90;;;;;;4772066;30;20238;-77
2023/03/11 08:03:45;;;;;;;15.40;9.37;;;8.00;99.90;;;;;;4788094;30;20206;-77
2023/03/11 08:06:18;;;;;;;13.97;9.27;;;7.90;99.90;;;;;;4770856;30;20586;-77
2023/03/11 08:08:46;;;;;;;14.07;8.90;;;7.90;99.90;;;;;;4788394;30;20224;-79
2023/03/11 08:11:14;;;;;;;12.80;9.30;;;7.90;99.90;;;;;;4771916;30;20218;-78
2023/03/11 08:14:00;;;;;;;12.93;8.80;;;7.90;99.90;;;;;;4771596;30;20226;-79
2023/03/11 08:16:44;;;;;;;11.80;8.73;;;7.90;99.90;;;;;;4736629;30;20234;-76
2023/03/11 08:19:12;;;;;;;12.67;8.73;;;8.10;99.90;;;;;;4771897;30;20201;-77
2023/03/11 08:21:39;;;;;;;14.70;9.47;;;8.10;99.90;;;;;;4787782;30;20668;-77
2023/03/11 08:24:06;;;;;;;15.90;10.10;;;8.00;99.90;;;;;;4787536;30;20220;-76
2023/03/11 08:26:33;;;;;;;15.03;10.07;;;7.80;99.90;;;;;;4771298;30;20211;-75
2023/03/11 08:29:00;;;;;;;14.63;9.93;;;7.90;99.90;;;;;;4771380;30;20231;-77
2023/03/11 08:31:29;;;;;;;15.70;9.77;;;7.90;99.90;;;;;;4787459;30;20240;-76
2023/03/11 08:34:06;;;;;;;13.37;10.03;;;7.80;99.90;;;;;;4771758;30;20722;-75
2023/03/11 08:36:33;;;;;;;12.27;9.20;;;7.70;99.90;;;;;;4771532;30;20204;-75
2023/03/11 08:39:00;;;;;;;14.97;9.90;;;7.70;99.90;;;;;;4771330;30;20215;-76
2023/03/11 08:41:27;;;;;;;14.00;9.33;;;7.70;99.90;;;;;;4771327;30;20322;-76
2023/03/11 08:43:55;;;;;;;13.17;9.53;;;7.70;99.90;;;;;;4787856;30;20196;-76
2023/03/11 08:46:31;;;;;;;13.50;9.50;;;7.70;99.90;;;;;;4770987;30;20220;-76
2023/03/11 08:48:58;;;;;;;14.93;9.93;;;7.50;99.90;;;;;;4771279;30;20396;-75
2023/03/11 08:51:29;;;;;;;15.17;10.00;;;7.70;99.90;;;;;;4770896;30;20212;-76
2023/03/11 08:53:56;;;;;;;16.77;11.10;;;7.60;99.90;;;;;;4787288;30;20201;-75
2023/03/11 08:56:23;;;;;;;18.90;11.10;;;7.50;99.90;;;;;;4787812;30;20273;-78
2023/03/11 08:58:53;;;;;;;17.67;12.13;;;7.50;99.90;;;;;;4787531;30;20212;-76
2023/03/11 09:01:22;;;;;;;19.40;12.53;;;7.40;99.90;;;;;;4771231;30;20250;-77
2023/03/11 09:03:50;;;;;;;19.47;12.47;;;7.30;99.90;;;;;;4771105;30;20253;-76
2023/03/11 09:06:18;;;;;;;19.30;11.87;;;7.10;99.90;;;;;;4771045;30;20227;-77
2023/03/11 09:08:46;;;;;;;20.17;12.47;;;7.10;99.90;;;;;;4771319;30;20217;-77
2023/03/11 09:11:15;;;;;;;16.87;11.13;;;7.00;99.90;;;;;;4788151;30;20200;-77
2023/03/11 09:13:44;;;;;;;19.17;11.90;;;7.00;99.90;;;;;;4787588;30;20219;-77
2023/03/11 09:16:13;;;;;;;16.63;11.03;;;6.90;99.90;;;;;;4770959;29;20339;-76
2023/03/11 09:18:39;;;;;;;18.47;11.00;;;6.90;99.90;;;;;;4787726;30;20647;-76
2023/03/11 09:21:06;;;;;;;16.70;10.80;;;6.80;99.90;;;;;;4770864;30;20243;-76
2023/03/11 09:23:33;;;;;;;17.27;10.57;;;6.90;99.90;;;;;;4770599;30;20669;-77
2023/03/11 09:26:02;;;;;;;14.47;9.43;;;6.90;99.90;;;;;;4770742;30;20214;-76
2023/03/11 09:28:29;;;;;;;15.60;9.17;;;6.90;99.90;;;;;;4770840;30;20226;-76
2023/03/11 09:30:57;;;;;;;14.73;8.87;;;6.90;99.90;;;;;;4786853;30;20239;-76
2023/03/11 09:33:45;;;;;;;14.30;8.93;;;6.80;99.90;;;;;;4770454;30;20239;-75
2023/03/11 09:36:14;;;;;;;15.73;8.93;;;6.90;99.90;;;;;;4770955;30;20396;-76
2023/03/11 09:38:41;;;;;;;14.43;9.20;;;6.90;99.90;;;;;;4770972;30;20218;-76
2023/03/11 09:42:01;;;;;;;16.37;10.27;;;6.70;99.90;;;;;;4786824;30;20254;-77
2023/03/11 09:45:14;;;;;;;18.63;10.03;;;6.70;99.90;;;;;;4757799;30;20221;-75
2023/03/11 09:49:05;;;;;;;17.03;11.00;;;6.70;99.90;;;;;;4784644;30;20348;-75
2023/03/11 09:52:12;;;;;;;19.83;11.70;;;6.70;99.90;;;;;;4770493;30;20215;-76
2023/03/11 09:54:44;;;;;;;22.67;13.47;;;6.60;99.90;;;;;;4770472;30;20198;-78
2023/03/11 09:57:16;;;;;;;23.67;13.27;;;6.60;99.90;;;;;;4786693;30;20206;-76
2023/03/11 09:59:45;;;;;;;28.40;15.10;;;6.60;99.90;;;;;;4770670;30;20225;-77
2023/03/11 10:02:18;;;;;;;35.20;17.37;;;6.40;99.90;;;;;;4770744;30;20298;-75
2023/03/11 10:05:19;;;;;;;29.13;14.23;;;5.80;99.90;;;;;;4786697;30;20197;-74
2023/03/11 10:07:56;;;;;;;29.10;14.10;;;5.50;99.90;;;;;;4786816;30;20222;-76
2023/03/11 10:10:24;;;;;;;32.83;15.67;;;5.30;99.90;;;;;;4771162;30;20213;-75
2023/03/11 10:13:09;;;;;;;33.63;16.23;;;5.00;99.90;;;;;;4771014;30;20271;-74
2023/03/11 10:15:52;;;;;;;35.50;17.33;;;4.80;99.90;;;;;;4786511;30;20203;-73
2023/03/11 10:18:37;;;;;;;38.27;16.93;;;4.50;99.90;;;;;;4770449;30;20206;-75
2023/03/11 10:21:13;;;;;;;38.67;17.87;;;4.50;99.90;;;;;;4770493;30;20229;-75
2023/03/11 10:24:41;;;;;;;37.67;17.97;;;4.50;99.90;;;;;;4786784;30;20209;-74
2023/03/11 10:27:15;;;;;;;41.17;18.57;;;4.40;99.90;;;;;;4688043;30;20213;-74
2023/03/11 10:29:42;;;;;;;38.27;17.93;;;4.20;99.90;;;;;;4715625;30;20264;-74
2023/03/11 10:32:18;;;;;;;32.40;15.20;;;4.00;99.90;;;;;;4716770;30;20213;-75
2023/03/11 10:34:52;;;;;;;29.97;14.93;;;3.80;99.90;;;;;;4701883;30;20195;-76
2023/03/11 10:37:29;;;;;;;29.03;14.40;;;3.60;99.90;;;;;;4716620;30;20591;-74
2023/03/11 10:40:25;;;;;;;24.70;12.93;;;3.80;99.90;;;;;;4702263;30;20209;-74
2023/03/11 10:42:55;;;;;;;21.10;11.20;;;3.80;99.90;;;;;;4701974;30;20258;-75
2023/03/11 10:45:22;;;;;;;19.67;10.50;;;3.60;99.90;;;;;;4716367;30;20211;-75
2023/03/11 10:47:49;;;;;;;15.13;8.90;;;3.50;99.90;;;;;;4701870;30;20215;-75
2023/03/11 10:50:18;;;;;;;13.63;8.10;;;3.40;99.90;;;;;;4716389;30;20294;-73
2023/03/11 10:53:05;;;;;;;10.77;7.03;;;3.40;99.90;;;;;;4716616;30;20262;-74
2023/03/11 10:55:33;;;;;;;11.47;6.93;;;3.40;99.90;;;;;;4716413;30;20236;-73
2023/03/11 10:58:05;;;;;;;12.23;7.17;;;3.20;99.90;;;;;;4715742;30;20303;-74
2023/03/11 11:00:32;;;;;;;11.83;7.30;;;3.10;99.90;;;;;;4716459;30;20631;-75
2023/03/11 11:03:00;;;;;;;13.53;7.50;;;3.00;99.90;;;;;;4757272;30;20543;-75
2023/03/11 11:05:33;;;;;;;11.33;7.60;;;2.90;99.90;;;;;;4772633;30;20580;-75
2023/03/11 11:08:20;;;;;;;11.73;7.80;;;3.00;99.90;;;;;;4789055;30;20201;-75
2023/03/11 11:10:58;;;;;;;13.93;8.27;;;2.90;99.90;;;;;;4789211;30;20217;-75
2023/03/11 11:13:30;;;;;;;14.03;8.70;;;2.90;99.90;;;;;;4698559;30;20219;-76
2023/03/11 11:16:15;;;;;;;15.30;9.60;;;2.90;99.90;;;;;;4684269;30;20299;-75
2023/03/11 11:18:51;;;;;;;13.40;9.07;;;2.80;99.90;;;;;;4684346;30;20217;-75
2023/03/11 11:21:36;;;;;;;11.80;8.27;;;2.80;99.90;;;;;;4712914;30;20238;-74
2023/03/11 11:24:23;;;;;;;12.63;7.83;;;2.70;99.90;;;;;;4684246;30;20204;-76
2023/03/11 11:27:14;;;;;;;11.23;7.40;;;2.60;99.90;;;;;;4683897;30;20311;-75
2023/03/11 11:29:41;;;;;;;9.73;7.20;;;2.40;99.90;;;;;;4684395;30;20429;-75
2023/03/11 11:32:17;;;;;;;9.23;6.70;;;2.30;99.90;;;;;;4752569;30;20664;-75
2023/03/11 11:35:14;;;;;;;10.87;7.10;;;2.30;99.90;;;;;;4772572;30;20219;-75
2023/03/11 11:37:50;;;;;;;10.50;7.03;;;2.30;99.90;;;;;;4788646;30;20225;-75
2023/03/11 11:40:25;;;;;;;8.53;6.67;;;2.30;99.90;;;;;;4788716;29;20602;-76
2023/03/11 11:42:56;;;;;;;7.17;5.40;;;2.40;99.90;;;;;;4769453;30;20248;-74
2023/03/11 11:45:35;;;;;;;5.50;4.50;;;2.20;99.90;;;;;;4771126;30;20209;-74
2023/03/11 11:48:20;;;;;;;6.17;4.70;;;2.10;99.90;;;;;;4769392;30;20216;-74
2023/03/11 11:50:59;;;;;;;6.47;4.80;;;2.10;99.90;;;;;;4789034;30;20294;-74
2023/03/11 11:53:48;;;;;;;7.57;4.73;;;2.10;99.90;;;;;;4788459;30;20199;-74
2023/03/11 11:56:15;;;;;;;5.97;4.53;;;2.20;99.90;;;;;;4769993;30;20208;-76
2023/03/11 11:58:42;;;;;;;6.07;4.83;;;2.10;99.90;;;;;;4768616;30;20209;-74
2023/03/11 12:01:14;;;;;;;6.33;4.90;;;2.00;99.90;;;;;;4785028;30;20204;-74
2023/03/11 12:04:01;;;;;;;6.23;5.00;;;2.00;99.90;;;;;;4769252;30;20727;-74
2023/03/11 12:06:53;;;;;;;7.07;5.33;;;2.00;99.90;;;;;;4771603;30;20311;-74
2023/03/11 12:09:48;;;;;;;6.50;5.03;;;2.10;99.90;;;;;;4700681;30;20223;-75
2023/03/11 12:12:45;;;;;;;8.30;5.50;;;2.10;99.90;;;;;;4686765;30;20314;-74
2023/03/11 12:15:25;;;;;;;8.93;5.93;;;2.10;99.90;;;;;;4700886;30;20849;-75
2023/03/11 12:17:58;;;;;;;7.53;5.57;;;2.00;99.90;;;;;;4715281;30;20216;-75
2023/03/11 12:20:53;;;;;;;9.30;6.73;;;1.80;99.90;;;;;;4715023;30;20641;-75
2023/03/11 12:23:35;;;;;;;11.00;7.10;;;1.70;99.90;;;;;;4699269;30;20239;-74
2023/03/11 12:26:23;;;;;;;10.40;7.30;;;1.60;99.90;;;;;;4700353;30;20222;-75
2023/03/11 12:28:57;;;;;;;10.60;7.50;;;1.60;99.90;;;;;;4700683;30;20246;-76
2023/03/11 12:31:27;;;;;;;11.90;8.23;;;1.40;99.90;;;;;;4714896;30;20333;-75
2023/03/11 12:34:02;;;;;;;11.60;8.20;;;1.30;99.90;;;;;;4700369;30;20213;-75
2023/03/11 12:36:37;;;;;;;11.80;8.13;;;1.30;99.90;;;;;;4700358;30;20216;-76
2023/03/11 12:39:07;;;;;;;12.13;8.13;;;1.30;99.90;;;;;;4700485;30;20203;-76
2023/03/11 12:41:40;;;;;;;13.90;8.13;;;1.30;99.90;;;;;;4714757;30;20632;-73
2023/03/11 12:44:21;;;;;;;13.17;8.73;;;1.40;99.90;;;;;;4700361;30;20310;-76
2023/03/11 12:46:56;;;;;;;11.80;8.10;;;1.40;99.90;;;;;;4753239;30;20210;-75
2023/03/11 12:49:30;;;;;;;11.27;7.83;;;1.30;99.90;;;;;;4771885;30;20225;-75
2023/03/11 12:52:12;;;;;;;11.63;7.73;;;1.30;99.90;;;;;;4771036;30;20211;-75
2023/03/11 12:54:43;;;;;;;11.97;7.70;;;1.20;99.90;;;;;;4771696;30;20531;-75
2023/03/11 12:57:19;;;;;;;10.83;7.40;;;1.20;99.90;;;;;;4773914;30;20655;-78
2023/03/11 13:00:21;;;;;;;11.03;6.70;;;1.10;99.90;;;;;;4793848;30;20184;-81
2023/03/11 13:02:59;;;;;;;10.70;6.80;;;1.20;99.90;;;;;;4787519;30;20582;-76
2023/03/11 13:05:56;;;;;;;9.33;6.50;;;1.20;99.90;;;;;;4771109;30;20208;-75
2023/03/11 13:08:26;;;;;;;13.73;7.40;;;1.10;99.90;;;;;;4771222;30;20248;-76
2023/03/11 13:10:55;;;;;;;9.80;6.90;;;1.20;99.90;;;;;;4771081;30;20208;-76
2023/03/11 13:13:41;;;;;;;10.03;6.27;;;1.10;99.90;;;;;;4771001;30;20561;-76